createdAt,value
2022-09-12T00:01:49.299Z,13.63
2022-09-12T00:04:15.614Z,13.59
2022-09-12T00:06:42.082Z,13.54
2022-09-12T00:09:08.714Z,13.46
2022-09-12T00:11:35.995Z,13.45
2022-09-12T00:14:02.383Z,13.45
2022-09-12T00:16:31.241Z,13.43
2022-09-12T00:18:57.581Z,13.42
2022-09-12T00:21:23.900Z,13.41
2022-09-12T00:23:50.524Z,13.39
2022-09-12T00:26:17.713Z,13.36
2022-09-12T00:28:44.838Z,13.30
2022-09-12T00:31:12.904Z,13.28
2022-09-12T00:33:41.088Z,13.23
2022-09-12T00:36:08.816Z,13.27
2022-09-12T00:38:35.178Z,13.29
2022-09-12T00:41:01.487Z,13.24
2022-09-12T00:43:34.879Z,13.17
2022-09-12T00:46:02.768Z,13.09
2022-09-12T00:48:31.908Z,13.08
2022-09-12T00:50:59.647Z,13.10
2022-09-12T00:53:26.082Z,13.09
2022-09-12T00:55:52.952Z,13.02
2022-09-12T00:58:21.530Z,13.00
2022-09-12T01:00:48.357Z,12.97
2022-09-12T01:03:16.734Z,12.93
2022-09-12T01:05:46.270Z,12.92
2022-09-12T01:08:13.894Z,12.90
2022-09-12T01:10:41.153Z,12.86
2022-09-12T01:13:08.271Z,12.81
2022-09-12T01:15:34.654Z,12.81
2022-09-12T01:18:09.048Z,12.77
2022-09-12T01:20:48.590Z,12.72
2022-09-12T01:23:29.730Z,12.70
2022-09-12T01:26:02.794Z,12.68
2022-09-12T01:28:50.070Z,12.73
2022-09-12T01:31:20.891Z,12.79
2022-09-12T01:33:53.423Z,12.83
2022-09-12T01:36:37.334Z,12.86
2022-09-12T01:39:05.164Z,12.87
2022-09-12T01:41:39.002Z,12.85
2022-09-12T01:44:11.415Z,12.80
2022-09-12T01:46:42.748Z,12.78
2022-09-12T01:49:12.180Z,12.75
2022-09-12T01:51:39.713Z,12.75
2022-09-12T01:54:08.495Z,12.71
2022-09-12T01:56:37.974Z,12.67
2022-09-12T01:59:08.351Z,12.64
2022-09-12T02:01:36.465Z,12.64
2022-09-12T02:04:06.694Z,12.64
2022-09-12T02:06:35.399Z,12.65
2022-09-12T02:09:03.313Z,12.64
2022-09-12T02:11:31.871Z,12.67
2022-09-12T02:14:01.259Z,12.71
2022-09-12T02:16:31.794Z,12.69
2022-09-12T02:19:02.896Z,12.63
2022-09-12T02:21:31.337Z,12.62
2022-09-12T02:23:59.318Z,12.63
2022-09-12T02:26:29.444Z,12.59
2022-09-12T02:28:56.567Z,12.54
2022-09-12T02:31:24.259Z,12.49
2022-09-12T02:34:00.066Z,12.44
2022-09-12T02:36:31.895Z,12.44
2022-09-12T02:38:59.693Z,12.48
2022-09-12T02:41:26.251Z,12.49
2022-09-12T02:43:53.379Z,12.50
2022-09-12T02:46:22.214Z,12.53
2022-09-12T02:48:48.505Z,12.52
2022-09-12T02:51:14.982Z,12.51
2022-09-12T02:53:41.915Z,12.50
2022-09-12T02:56:14.207Z,12.52
2022-09-12T02:58:40.494Z,12.48
2022-09-12T03:01:11.686Z,12.46
2022-09-12T03:03:47.018Z,12.49
2022-09-12T03:06:17.623Z,12.50
2022-09-12T03:08:57.852Z,12.47
2022-09-12T03:11:36.079Z,12.48
2022-09-12T03:14:08.934Z,12.51
2022-09-12T03:16:40.344Z,12.53
2022-09-12T03:19:11.665Z,12.52
2022-09-12T03:21:40.870Z,12.49
2022-09-12T03:24:11.579Z,12.44
2022-09-12T03:26:41.863Z,12.44
2022-09-12T03:29:08.490Z,12.49
2022-09-12T03:31:34.855Z,12.53
2022-09-12T03:34:01.115Z,12.56
2022-09-12T03:36:28.366Z,12.61
2022-09-12T03:38:55.034Z,12.65
2022-09-12T03:41:21.327Z,12.67
2022-09-12T03:43:48.934Z,12.69
2022-09-12T03:46:15.222Z,12.68
2022-09-12T03:48:41.622Z,12.63
2022-09-12T03:51:08.862Z,12.64
2022-09-12T03:53:35.425Z,12.67
2022-09-12T03:56:05.542Z,12.68
2022-09-12T03:58:31.827Z,12.68
2022-09-12T04:00:59.475Z,12.68
2022-09-12T04:03:25.851Z,12.67
2022-09-12T04:05:52.131Z,12.67
2022-09-12T04:08:18.407Z,12.67
2022-09-12T04:10:44.674Z,12.67
2022-09-12T04:13:11.027Z,12.66
2022-09-12T04:15:37.315Z,12.64
2022-09-12T04:18:06.103Z,12.63
2022-09-12T04:20:32.677Z,12.64
2022-09-12T04:22:58.958Z,12.65
2022-09-12T04:25:25.306Z,12.63
2022-09-12T04:27:51.594Z,12.63
2022-09-12T04:30:17.954Z,12.64
2022-09-12T04:32:44.216Z,12.63
2022-09-12T04:35:11.952Z,12.62
2022-09-12T04:37:38.307Z,12.62
2022-09-12T04:40:04.910Z,12.63
2022-09-12T04:42:31.242Z,12.64
2022-09-12T04:44:57.498Z,12.65
2022-09-12T04:47:23.785Z,12.67
2022-09-12T04:49:50.072Z,12.67
2022-09-12T04:52:17.739Z,12.65
2022-09-12T04:54:44.028Z,12.62
2022-09-12T04:57:10.462Z,12.63
2022-09-12T04:59:38.019Z,12.64
2022-09-12T05:02:04.329Z,12.65
2022-09-12T05:04:30.718Z,12.67
2022-09-12T05:06:57.006Z,12.70
2022-09-12T05:09:24.765Z,12.71
2022-09-12T05:12:06.354Z,12.71
2022-09-12T05:14:33.146Z,12.71
2022-09-12T05:16:59.605Z,12.71
2022-09-12T05:19:26.187Z,12.72
2022-09-12T05:21:52.437Z,12.72
2022-09-12T05:24:18.703Z,12.73
2022-09-12T05:26:46.323Z,12.75
2022-09-12T05:29:12.582Z,12.77
2022-09-12T05:31:38.844Z,12.81
2022-09-12T05:34:05.106Z,12.82
2022-09-12T05:36:31.371Z,12.84
2022-09-12T05:38:59.019Z,12.86
2022-09-12T05:41:26.069Z,12.87
2022-09-12T05:43:54.447Z,12.89
2022-09-12T05:46:21.961Z,12.90
2022-09-12T05:48:52.539Z,12.93
2022-09-12T05:51:22.886Z,12.94
2022-09-12T05:53:50.581Z,12.96
2022-09-12T05:56:17.848Z,12.98
2022-09-12T05:58:45.149Z,13.01
2022-09-12T06:01:13.714Z,13.02
2022-09-12T06:03:40.752Z,13.05
2022-09-12T06:06:07.089Z,13.08
2022-09-12T06:08:34.308Z,13.10
2022-09-12T06:11:02.387Z,13.11
2022-09-12T06:13:30.871Z,13.14
2022-09-12T06:16:02.103Z,13.15
2022-09-12T06:18:29.683Z,13.16
2022-09-12T06:20:55.938Z,13.18
2022-09-12T06:23:22.221Z,13.23
2022-09-12T06:25:48.826Z,13.26
2022-09-12T06:28:15.112Z,13.30
2022-09-12T06:30:41.494Z,13.32
2022-09-12T06:33:07.858Z,13.36
2022-09-12T06:35:36.732Z,13.39
2022-09-12T06:38:02.990Z,13.42
2022-09-12T06:40:29.293Z,13.45
2022-09-12T06:42:55.570Z,13.48
2022-09-12T06:45:21.851Z,13.50
2022-09-12T06:47:48.174Z,13.54
2022-09-12T06:50:14.485Z,13.57
2022-09-12T06:52:42.156Z,13.59
2022-09-12T06:55:08.569Z,13.61
2022-09-12T06:57:34.839Z,13.66
2022-09-12T07:00:01.247Z,13.70
2022-09-12T07:02:27.532Z,13.73
2022-09-12T07:04:53.846Z,13.78
2022-09-12T07:07:20.279Z,13.82
2022-09-12T07:09:47.889Z,13.92
2022-09-12T07:12:14.159Z,14.00
2022-09-12T07:14:40.651Z,14.09
2022-09-12T07:17:06.991Z,14.20
2022-09-12T07:19:33.325Z,14.32
2022-09-12T07:21:59.614Z,14.40
2022-09-12T07:24:26.010Z,14.48
2022-09-12T07:26:53.595Z,14.56
2022-09-12T07:32:06.313Z,14.76
2022-09-12T07:34:32.697Z,14.83
2022-09-12T07:36:59.031Z,14.91
2022-09-12T07:39:25.314Z,14.99
2022-09-12T07:41:51.592Z,15.05
2022-09-12T07:44:19.184Z,15.09
2022-09-12T07:46:45.431Z,15.13
2022-09-12T07:49:11.955Z,15.15
2022-09-12T07:51:38.199Z,15.21
2022-09-12T07:54:07.141Z,15.27
2022-09-12T07:56:38.272Z,15.32
2022-09-12T07:59:05.339Z,15.38
2022-09-12T08:01:33.029Z,15.51
2022-09-12T08:03:59.997Z,15.62
2022-09-12T08:06:27.323Z,15.75
2022-09-12T08:08:54.523Z,15.88
2022-09-12T08:11:21.411Z,15.99
2022-09-12T08:13:51.659Z,16.11
2022-09-12T08:16:21.550Z,16.22
2022-09-12T08:18:49.633Z,16.34
2022-09-12T08:21:16.978Z,16.44
2022-09-12T08:23:43.446Z,16.55
2022-09-12T08:26:10.255Z,16.66
2022-09-12T08:28:36.993Z,16.75
2022-09-12T08:31:03.790Z,16.82
2022-09-12T08:33:30.400Z,16.89
2022-09-12T08:36:03.627Z,16.97
2022-09-12T08:38:29.955Z,17.05
2022-09-12T08:40:59.599Z,17.13
2022-09-12T08:43:31.247Z,17.21
2022-09-12T08:46:02.492Z,17.27
2022-09-12T08:48:29.279Z,17.30
2022-09-12T08:50:55.711Z,17.40
2022-09-12T08:53:25.042Z,17.47
2022-09-12T08:55:52.850Z,17.54
2022-09-12T08:58:20.308Z,17.61
2022-09-12T09:00:50.453Z,17.74
2022-09-12T09:03:40.867Z,17.86
2022-09-12T09:06:12.873Z,18.01
2022-09-12T09:08:46.108Z,18.08
2022-09-12T09:11:21.615Z,18.12
2022-09-12T09:13:54.397Z,18.24
2022-09-12T09:16:24.352Z,18.38
2022-09-12T09:18:51.604Z,18.49
2022-09-12T09:21:21.711Z,18.53
2022-09-12T09:23:50.718Z,18.64
2022-09-12T09:26:19.568Z,18.78
2022-09-12T09:28:47.102Z,18.93
2022-09-12T09:31:14.887Z,19.04
2022-09-12T09:33:41.199Z,19.15
2022-09-12T09:36:16.879Z,19.25
2022-09-12T09:38:46.882Z,19.35
2022-09-12T09:41:23.096Z,19.47
2022-09-12T09:43:49.370Z,19.59
2022-09-12T09:46:15.713Z,19.67
2022-09-12T09:48:44.799Z,19.71
2022-09-12T09:51:11.711Z,19.77
2022-09-12T09:53:41.079Z,19.85
2022-09-12T09:56:10.125Z,19.94
2022-09-12T09:58:39.310Z,20.03
2022-09-12T10:01:06.193Z,20.16
2022-09-12T10:03:33.910Z,20.26
2022-09-12T10:06:01.143Z,20.40
2022-09-12T10:08:28.309Z,20.54
2022-09-12T10:10:55.727Z,20.61
2022-09-12T10:13:24.505Z,20.69
2022-09-12T10:15:59.656Z,20.75
2022-09-12T10:18:33.064Z,20.79
2022-09-12T10:20:59.359Z,20.84
2022-09-12T10:23:30.161Z,20.95
2022-09-12T10:25:58.121Z,21.03
2022-09-12T10:28:31.957Z,21.06
2022-09-12T10:30:59.606Z,21.12
2022-09-12T10:33:26.268Z,21.16
2022-09-12T10:35:53.510Z,21.22
2022-09-12T10:38:22.796Z,21.31
2022-09-12T10:40:56.119Z,21.41
2022-09-12T10:43:26.577Z,21.48
2022-09-12T10:45:56.516Z,21.62
2022-09-12T10:48:26.979Z,21.69
2022-09-12T10:50:53.275Z,21.78
2022-09-12T10:53:20.353Z,21.83
2022-09-12T10:56:04.623Z,21.90
2022-09-12T10:58:43.250Z,21.91
2022-09-12T11:01:16.940Z,21.90
2022-09-12T11:03:53.205Z,21.93
2022-09-12T11:06:24.946Z,22.00
2022-09-12T11:08:58.850Z,22.09
2022-09-12T11:11:35.975Z,22.19
2022-09-12T11:14:11.374Z,22.17
2022-09-12T11:16:42.840Z,22.21
2022-09-12T11:19:20.131Z,22.23
2022-09-12T11:21:49.366Z,22.26
2022-09-12T11:24:23.533Z,22.29
2022-09-12T11:26:55.327Z,22.38
2022-09-12T11:29:30.388Z,22.48
2022-09-12T11:32:05.461Z,22.55
2022-09-12T11:34:40.266Z,22.62
2022-09-12T11:37:18.157Z,22.73
2022-09-12T11:39:46.489Z,22.77
2022-09-12T11:42:16.176Z,22.83
2022-09-12T11:44:45.878Z,22.83
2022-09-12T11:47:13.159Z,22.86
2022-09-12T11:49:43.872Z,22.90
2022-09-12T11:52:14.035Z,22.93
2022-09-12T11:54:42.294Z,23.01
2022-09-12T11:57:14.646Z,23.09
2022-09-12T11:59:44.061Z,23.16
2022-09-12T12:02:17.221Z,23.16
2022-09-12T12:04:57.361Z,23.19
2022-09-12T12:07:23.640Z,23.17
2022-09-12T12:09:50.899Z,23.22
2022-09-12T12:12:19.440Z,23.24
2022-09-12T12:14:47.534Z,23.29
2022-09-12T12:17:15.152Z,23.35
2022-09-12T12:19:41.488Z,23.43
2022-09-12T12:22:21.680Z,23.46
2022-09-12T12:24:55.315Z,23.52
2022-09-12T12:27:44.708Z,23.57
2022-09-12T12:30:25.904Z,23.58
2022-09-12T12:32:52.183Z,23.59
2022-09-12T12:35:33.444Z,23.62
2022-09-12T12:38:01.523Z,23.66
2022-09-12T12:40:28.974Z,23.69
2022-09-12T12:42:59.459Z,23.76
2022-09-12T12:45:44.442Z,23.76
2022-09-12T12:48:14.163Z,23.76
2022-09-12T12:50:40.539Z,23.82
2022-09-12T12:53:16.447Z,23.85
2022-09-12T12:55:47.007Z,23.80
2022-09-12T12:58:23.878Z,23.71
2022-09-12T13:01:01.000Z,23.56
2022-09-12T13:03:28.689Z,23.48
2022-09-12T13:05:59.476Z,23.52
2022-09-12T13:08:29.466Z,23.51
2022-09-12T13:10:57.992Z,23.44
2022-09-12T13:13:26.087Z,23.38
2022-09-12T13:15:52.473Z,23.36
2022-09-12T13:18:23.127Z,23.34
2022-09-12T13:20:52.184Z,23.35
2022-09-12T13:23:22.135Z,23.35
2022-09-12T13:25:53.538Z,23.33
2022-09-12T13:28:19.835Z,23.31
2022-09-12T13:30:48.464Z,23.33
2022-09-12T13:33:20.974Z,23.29
2022-09-12T13:35:57.542Z,23.25
2022-09-12T13:38:28.550Z,23.20
2022-09-12T13:41:06.575Z,23.19
2022-09-12T13:43:37.033Z,23.17
2022-09-12T13:46:03.421Z,23.14
2022-09-12T13:48:29.819Z,23.15
2022-09-12T13:50:57.582Z,23.14
2022-09-12T13:53:25.624Z,23.16
2022-09-12T13:55:52.865Z,23.19
2022-09-12T13:58:22.201Z,23.21
2022-09-12T14:01:00.077Z,23.22
2022-09-12T14:03:27.135Z,23.19
2022-09-12T14:05:55.494Z,23.19
2022-09-12T14:08:22.673Z,23.19
2022-09-12T14:10:49.894Z,23.19
2022-09-12T14:13:18.795Z,23.18
2022-09-12T14:15:47.634Z,23.14
2022-09-12T14:18:21.856Z,23.16
2022-09-12T14:20:48.159Z,23.15
2022-09-12T14:23:18.824Z,23.14
2022-09-12T14:25:45.291Z,23.11
2022-09-12T14:28:13.267Z,23.10
2022-09-12T14:30:39.604Z,23.06
2022-09-12T14:33:16.665Z,23.07
2022-09-12T14:35:44.152Z,23.08
2022-09-12T14:38:16.822Z,23.10
2022-09-12T14:40:44.357Z,23.12
2022-09-12T14:43:18.133Z,23.13
2022-09-12T14:45:51.430Z,23.13
2022-09-12T14:48:19.187Z,23.14
2022-09-12T14:50:48.691Z,23.16
2022-09-12T14:53:22.911Z,23.15
2022-09-12T14:55:50.462Z,23.12
2022-09-12T14:58:22.712Z,23.12
2022-09-12T15:00:52.745Z,23.16
2022-09-12T15:03:24.677Z,23.21
2022-09-12T15:05:50.979Z,23.25
2022-09-12T15:08:17.234Z,23.30
2022-09-12T15:10:43.514Z,23.37
2022-09-12T15:13:13.842Z,23.41
2022-09-12T15:15:40.811Z,23.41
2022-09-12T15:18:07.266Z,23.37
2022-09-12T15:20:35.937Z,23.33
2022-09-12T15:23:02.222Z,23.28
2022-09-12T15:25:28.475Z,23.26
2022-09-12T15:27:54.917Z,23.21
2022-09-12T15:30:21.388Z,23.19
2022-09-12T15:32:47.661Z,23.24
2022-09-12T15:35:15.858Z,23.31
2022-09-12T15:37:43.606Z,23.29
2022-09-12T15:40:11.096Z,23.27
2022-09-12T15:42:37.390Z,23.25
2022-09-12T15:45:11.414Z,23.22
2022-09-12T15:47:37.679Z,23.19
2022-09-12T15:50:04.301Z,23.17
2022-09-12T15:52:30.547Z,23.14
2022-09-12T15:54:58.171Z,23.13
2022-09-12T15:57:24.431Z,23.15
2022-09-12T15:59:50.687Z,23.14
2022-09-12T16:02:16.967Z,23.14
2022-09-12T16:04:43.214Z,23.17
2022-09-12T16:07:09.486Z,23.19
2022-09-12T16:09:35.742Z,23.17
2022-09-12T16:12:03.739Z,23.16
2022-09-12T16:14:30.012Z,23.16
2022-09-12T16:16:58.940Z,23.15
2022-09-12T16:19:25.202Z,23.12
2022-09-12T16:21:51.456Z,23.12
2022-09-12T16:24:17.766Z,23.09
2022-09-12T16:26:44.044Z,23.02
2022-09-12T16:29:12.567Z,22.96
2022-09-12T16:31:38.822Z,22.90
2022-09-12T16:34:05.079Z,22.84
2022-09-12T16:36:31.358Z,22.80
2022-09-12T16:38:57.626Z,22.74
2022-09-12T16:41:24.704Z,22.67
2022-09-12T16:43:51.232Z,22.61
2022-09-12T16:46:19.672Z,22.58
2022-09-12T16:48:51.755Z,22.50
2022-09-12T16:51:19.812Z,22.45
2022-09-12T16:53:46.406Z,22.40
2022-09-12T16:56:12.694Z,22.32
2022-09-12T16:58:48.233Z,22.26
2022-09-12T17:01:15.527Z,22.21
2022-09-12T17:03:43.264Z,22.14
2022-09-12T17:06:10.606Z,22.10
2022-09-12T17:08:37.703Z,22.04
2022-09-12T17:11:04.937Z,21.98
2022-09-12T17:13:46.838Z,21.92
2022-09-12T17:16:17.942Z,21.84
2022-09-12T17:18:45.667Z,21.76
2022-09-12T17:21:12.502Z,21.70
2022-09-12T17:23:39.321Z,21.62
2022-09-12T17:26:06.089Z,21.55
2022-09-12T17:28:32.370Z,21.46
2022-09-12T17:30:59.507Z,21.38
2022-09-12T17:33:26.017Z,21.30
2022-09-12T17:35:53.727Z,21.21
2022-09-12T17:38:24.563Z,21.11
2022-09-12T17:40:59.378Z,21.02
2022-09-12T17:43:26.376Z,20.95
2022-09-12T17:45:55.324Z,20.88
2022-09-12T17:48:21.639Z,20.82
2022-09-12T17:50:47.914Z,20.76
2022-09-12T17:53:15.538Z,20.72
2022-09-12T17:55:41.797Z,20.67
2022-09-12T17:58:08.066Z,20.62
2022-09-12T18:00:34.482Z,20.56
2022-09-12T18:03:00.781Z,20.49
2022-09-12T18:05:27.062Z,20.44
2022-09-12T18:07:53.339Z,20.37
2022-09-12T18:10:20.944Z,20.32
2022-09-12T18:12:47.221Z,20.25
2022-09-12T18:15:13.507Z,20.20
2022-09-12T18:17:39.771Z,20.16
2022-09-12T18:20:06.576Z,20.09
2022-09-12T18:22:32.839Z,20.04
2022-09-12T18:24:59.119Z,19.97
2022-09-12T18:27:26.835Z,19.95
2022-09-12T18:30:10.613Z,19.92
2022-09-12T18:32:39.388Z,19.88
2022-09-12T18:35:06.146Z,19.86
2022-09-12T18:37:32.604Z,19.81
2022-09-12T18:39:58.929Z,19.74
2022-09-12T18:42:26.599Z,19.68
2022-09-12T18:44:53.074Z,19.62
2022-09-12T18:47:19.326Z,19.55
2022-09-12T18:49:45.589Z,19.50
2022-09-12T18:52:11.870Z,19.47
2022-09-12T18:54:38.136Z,19.47
2022-09-12T18:57:04.406Z,19.43
2022-09-12T18:59:32.052Z,19.41
2022-09-12T19:01:58.359Z,19.36
2022-09-12T19:04:25.004Z,19.33
2022-09-12T19:06:51.322Z,19.28
2022-09-12T19:09:18.364Z,19.27
2022-09-12T19:11:45.564Z,19.27
2022-09-12T19:14:11.902Z,19.21
2022-09-12T19:16:39.506Z,19.17
2022-09-12T19:19:05.768Z,19.15
2022-09-12T19:21:32.502Z,19.13
2022-09-12T19:23:59.972Z,19.12
2022-09-12T19:26:26.382Z,19.11
2022-09-12T19:28:53.373Z,19.11
2022-09-12T19:31:20.286Z,19.11
2022-09-12T19:33:48.077Z,19.11
2022-09-12T19:36:34.087Z,19.08
2022-09-12T19:39:02.527Z,19.06
2022-09-12T19:41:30.313Z,19.03
2022-09-12T19:43:56.578Z,19.00
2022-09-12T19:46:23.948Z,18.96
2022-09-12T19:48:51.758Z,18.95
2022-09-12T19:51:18.844Z,18.93
2022-09-12T19:53:45.474Z,18.91
2022-09-12T19:56:12.891Z,18.90
2022-09-12T19:58:39.881Z,18.89
2022-09-12T20:01:10.246Z,18.89
2022-09-12T20:03:36.829Z,18.84
2022-09-12T20:06:05.050Z,18.79
2022-09-12T20:08:31.343Z,18.71
2022-09-12T20:10:57.661Z,18.65
2022-09-12T20:13:24.023Z,18.58
2022-09-12T20:15:50.411Z,18.51
2022-09-12T20:18:16.867Z,18.47
2022-09-12T20:20:43.144Z,18.39
2022-09-12T20:23:10.834Z,18.34
2022-09-12T20:25:37.382Z,18.31
2022-09-12T20:28:03.648Z,18.27
2022-09-12T20:30:29.937Z,18.22
2022-09-12T20:32:56.203Z,18.19
2022-09-12T20:35:22.551Z,18.18
2022-09-12T20:37:48.970Z,18.14
2022-09-12T20:40:16.875Z,18.10
2022-09-12T20:42:43.223Z,18.05
2022-09-12T20:45:09.926Z,18.01
2022-09-12T20:47:36.203Z,17.97
2022-09-12T20:50:02.475Z,17.95
2022-09-12T20:52:28.738Z,17.92
2022-09-12T20:54:55.007Z,17.86
2022-09-12T20:57:22.707Z,17.82
2022-09-12T20:59:48.983Z,17.77
2022-09-12T21:02:15.542Z,17.73
2022-09-12T21:04:41.843Z,17.69
2022-09-12T21:07:08.107Z,17.64
2022-09-12T21:09:34.427Z,17.63
2022-09-12T21:12:00.702Z,17.61
2022-09-12T21:14:28.330Z,17.57
2022-09-12T21:16:54.595Z,17.56
2022-09-12T21:19:20.875Z,17.52
2022-09-12T21:21:47.147Z,17.46
2022-09-12T21:24:13.602Z,17.43
2022-09-12T21:26:39.891Z,17.42
2022-09-12T21:29:06.167Z,17.38
2022-09-12T21:31:33.889Z,17.37
2022-09-12T21:34:02.019Z,17.34
2022-09-12T21:36:28.277Z,17.29
2022-09-12T21:38:57.023Z,17.30
2022-09-12T21:41:23.291Z,17.30
2022-09-12T21:43:49.606Z,17.29
2022-09-12T21:46:16.028Z,17.26
2022-09-12T21:48:43.707Z,17.22
2022-09-12T21:51:09.992Z,17.21
2022-09-12T21:53:36.806Z,17.22
2022-09-12T21:56:03.848Z,17.22
2022-09-12T21:58:30.150Z,17.20
2022-09-12T22:00:56.515Z,17.20
2022-09-12T22:03:22.958Z,17.18
2022-09-12T22:05:55.930Z,17.17
2022-09-12T22:08:22.194Z,17.16
2022-09-12T22:10:48.479Z,17.18
2022-09-12T22:13:14.744Z,17.19
2022-09-12T22:15:42.692Z,17.19
2022-09-12T22:18:08.979Z,17.20
2022-09-12T22:20:35.262Z,17.20
2022-09-12T22:23:02.886Z,17.21
2022-09-12T22:25:29.295Z,17.22
2022-09-12T22:27:55.582Z,17.21
2022-09-12T22:30:21.970Z,17.22
2022-09-12T22:32:48.370Z,17.22
2022-09-12T22:35:14.634Z,17.23
2022-09-12T22:37:40.946Z,17.24
2022-09-12T22:40:09.435Z,17.24
2022-09-12T22:42:35.775Z,17.25
2022-09-12T22:45:02.043Z,17.24
2022-09-12T22:47:28.298Z,17.22
2022-09-12T22:49:54.568Z,17.22
2022-09-12T22:52:20.951Z,17.19
2022-09-12T22:54:47.223Z,17.17
2022-09-12T22:57:14.847Z,17.12
2022-09-12T22:59:41.132Z,17.10
2022-09-12T23:02:07.395Z,17.09
2022-09-12T23:04:33.888Z,17.07
2022-09-12T23:07:00.459Z,17.07
2022-09-12T23:09:26.775Z,17.09
2022-09-12T23:11:53.291Z,17.10
2022-09-12T23:14:20.928Z,17.08
2022-09-12T23:16:47.202Z,17.08
2022-09-12T23:19:13.482Z,17.08
2022-09-12T23:21:39.743Z,17.07
2022-09-12T23:24:06.055Z,17.08
2022-09-12T23:26:32.325Z,17.08
2022-09-12T23:28:59.221Z,17.09
2022-09-12T23:31:27.886Z,17.09
2022-09-12T23:33:54.454Z,17.09
2022-09-12T23:36:20.994Z,17.07
2022-09-12T23:38:47.281Z,17.06
2022-09-12T23:41:14.033Z,17.08
2022-09-12T23:43:40.633Z,17.10
2022-09-12T23:46:07.124Z,17.12
2022-09-12T23:48:35.285Z,17.11
2022-09-12T23:51:01.940Z,17.12
2022-09-12T23:53:28.216Z,17.13
2022-09-12T23:55:54.490Z,17.13
2022-09-12T23:58:21.028Z,17.15
